Tiempo atmosférico en la estación meteorológica de Colmenar Viejo, Madrid (1004 m.)



Fecha
DESCASC
Temp. máxima en grados centígrados (hora)
DESCASC
Temp. mínima en grados centígrados (hora)
DESCASC
Temp. media en grados centígrados
DESCASC
Racha de viento máxima en m/sg (hora)
DESCASC
Velocidad máxima media en intervalos de 10 minutos(hora)
DESCASC
Precipitaciones diarias en mm
DESCASC
Precipitaciones de 00:00 a 06:00 en mm
DESCASC
Precipitaciones de 06:00 a 12:00 en mm
DESCASC
Precipitaciones de 12:00 a 18:00 en mm
DESCASC
Precipitaciones de 18:00 a 24:00 en mm
DESCASC
17-10-2019 13.2 (18:30) 7.4 (05:40) 10.3 7.78 (21:50) 2.5 (17:30) 1.5 0 1.5 0 0
16-10-2019 16.1 (17:10) 5.9 (08:00) 11 8.61 (15:40) 3.61 (20:40) 0 0 0 0 0
15-10-2019 14.8 (17:10) 4.6 (05:50) 9.7 10.28 (02:00) 5 (06:20) 0 0 0 0 0
14-10-2019 16.8 (02:50) 6.6 (23:30) 11.7 14.72 (17:00) 8.61 (17:00) 3.6 0 0 0.2 3.4
13-10-2019 -- (--) -- (--) -- -- (--) -- (--) -- -- -- 0 0
12-10-2019 23.2 (18:00) 13 (00:00) 18.1 16.39 (20:50) 4.72 (22:50) 6.4 0 0 0 6.4
11-10-2019 23.1 (16:20) 13.7 (00:00) 18.4 7.22 (15:50) 2.78 (18:00) 0 0 0 0 0
10-10-2019 23 (17:10) 12 (00:00) 17.5 9.17 (04:20) 6.39 (04:20) 0 0 0 0 0
09-10-2019 26.2 (17:00) 15.4 (00:00) 20.8 11.39 (21:30) 3.61 (23:40) 0 0 0 0 0
08-10-2019 26.6 (16:50) 14.9 (00:00) 20.8 6.39 (15:20) 3.61 (18:20) 0 0 0 0 0
07-10-2019 26.7 (17:30) 13.1 (00:00) 19.9 6.11 (16:10) 2.78 (15:30) 0 0 0 0 0
06-10-2019 25 (16:20) 13.2 (00:00) 19.1 6.11 (17:50) 3.33 (18:20) 0 0 0 0 0
05-10-2019 24.7 (16:50) 12.9 (00:00) 18.8 7.22 (16:10) 3.33 (16:10) 0 0 0 0 0
04-10-2019 25 (16:30) 13 (00:00) 19 6.67 (12:10) 3.89 (17:10) 0 0 0 0 0
03-10-2019 23 (16:50) 8.8 (00:00) 15.9 7.5 (17:00) 3.61 (19:20) 0 0 0 0 0
02-10-2019 20 (17:20) 10.1 (00:00) 15.1 9.72 (00:20) 5 (01:00) 0 0 0 0 0
01-10-2019 24.5 (15:40) 14.8 (00:00) 19.7 11.11 (13:40) 5.28 (18:20) 0 0 0 0 0
30-09-2019 26.3 (16:30) 14.9 (00:00) 20.6 9.17 (19:10) 3.61 (14:50) 0 0 0 0 0
29-09-2019 27.5 (17:10) 14.5 (00:00) 21 6.94 (14:40) 3.33 (17:10) 0 0 0 0 0
28-09-2019 26 (17:20) 14.2 (00:00) 20.1 6.67 (16:50) 3.61 (16:50) 0 0 0 0 0
27-09-2019 26.6 (17:20) 14.7 (00:00) 20.7 8.33 (12:20) 3.06 (17:50) 0 0 0 0 0
26-09-2019 25.1 (17:30) 12.9 (00:00) 19 12.22 (12:40) 3.33 (15:30) 0 0 0 0 0
25-09-2019 21.4 (18:00) 10.6 (00:00) 16 11.67 (00:20) 5.83 (00:50) 0 0 0 0 0
24-09-2019 23.4 (15:40) 11.9 (00:00) 17.6 9.44 (23:59) 4.72 (23:20) 0 0 0 0 0
23-09-2019 20.4 (16:50) 10.1 (00:00) 15.3 6.67 (16:50) 3.33 (15:40) 0 0 0 0 0
22-09-2019 20.1 (15:50) 11.9 (00:00) 16 10.28 (17:10) 5.28 (17:10) 1.5 1 0.5 0 0
21-09-2019 17 (16:30) 13 (00:00) 15 11.39 (01:30) 3.89 (00:50) 15.4 14.1 0 0.2 1.1
20-09-2019 21.8 (17:30) 13.1 (00:00) 17.4 16.11 (21:40) 6.67 (21:50) 3.7 0 0 0 3.7

Gráficas

Temp. máximas Temp. mínimas Temp. medias Precipitaciones Rachas de viento máximas Velocidades máximas media en intervalos de 10 minutos

Datos horarios

Fecha y hora oficial Temperatura (ºC) Velocidad del viento (km/h) Dirección del viento Racha (km/h) Dirección de racha Precipitación (mm) Presión (hPa) Tendencia (hPa) Humedad (%)
2019-10-19 23:00:00 10.5 8 Sur 17 Sur 2.3 892.2 -1 99
2019-10-19 22:00:00 10.4 5 Oeste 14 Oeste 5.2 892.9 -1.7 99
2019-10-19 21:00:00 11 2 Nordeste 7 Nordeste 0 892.4 -2.4 88
2019-10-19 20:00:00 10.9 3 Oeste 9 Oeste 0 893.2 -1.8 86
2019-10-19 19:00:00 11 5 Oeste 23 Sudoeste 0 894.6 -1.2 83
2019-10-19 18:00:00 11.6 10 Sudoeste 25 Sudoeste 0 894.8 -1.3 77
2019-10-19 17:00:00 11.4 9 Sudoeste 35 Sudoeste 0.2 895 -1.9 79
2019-10-19 16:00:00 11.4 3 Oeste 12 Sudoeste 0 895.8 -1.8 75
2019-10-19 15:00:00 11.2 8 Sudoeste 22 Sudoeste 0 896.1 -1.8 73
2019-10-19 14:00:00 10.3 10 Sudoeste 23 Sudoeste 0 896.9 -1.2 76
2019-10-19 13:00:00 9.8 11 Sudoeste 29 Sudoeste 0 897.6 -0.6 80
2019-10-19 12:00:00 9.3 14 Sudoeste 27 Sudoeste 0 897.9 -0.1 88
2019-10-19 11:00:00 8.4 12 Sudoeste 22 Sudoeste 0 898.1 0.2 99
2019-10-19 10:00:00 8 7 Sudoeste 14 Sudoeste 0 898.2 0.1 92
2019-10-19 09:00:00 7.2 4 Sudoeste 10 Sudoeste 0 898 -0.6 97
2019-10-19 08:00:00 7 0 Calma 9 Sudeste 0 897.9 -1 97
2019-10-19 07:00:00 7.7 4 Sudeste 12 Sur 0 898.1 -0.8 94
2019-10-19 06:00:00 8.6 8 Sudoeste 18 Sudoeste 0 898.6 -1.1 78
2019-10-19 05:00:00 9 13 Oeste 43 Oeste 0 898.9 -1.1 81
2019-10-19 04:00:00 8.5 10 Sudoeste 24 Sudoeste 0 898.9 -1.5 97
2019-10-19 03:00:00 8.9 9 Sudoeste 14 Sudoeste 0 899.7 -0.8 96
2019-10-19 02:00:00 9.2 7 Sudoeste 19 Sudoeste 0 900 -1 94
2019-10-19 01:00:00 10 14 Sudoeste 23 Sudoeste 0 900.4 -0.6 94
2019-10-19 00:00:00 10.8 15 Sudoeste 24 Sudoeste 0 900.5 -0.7 86
2019-10-18 23:00:00 11.9 9 Sudoeste 18 Sudoeste 0 901 -0.3 76
2019-10-18 22:00:00 12.6 8 Sudoeste 22 Sudoeste 0 901 -0.2 76
2019-10-18 21:00:00 13.5 9 Sudoeste 20 Sudoeste 0 901.2 -0.2 73
2019-10-18 20:00:00 14.1 6 Oeste 18 Sudoeste 0 901.3 -0.5 71
2019-10-18 19:00:00 14.8 11 Sudoeste 38 Sudoeste 0 901.2 -0.9 70
2019-10-18 18:00:00 15.2 18 Sudoeste 39 Sudoeste 0 901.4 -1 71
2019-10-18 17:00:00 15.8 18 Sudoeste 35 Sudoeste 0 901.8 -1.2 73
2019-10-18 16:00:00 16.6 15 Sudoeste 35 Sudoeste 0 902.1 -1.6 71
2019-10-18 15:00:00 16.6 13 Sudoeste 29 Sur 0 902.4 -1.5 77
2019-10-18 14:00:00 15.8 12 Sudoeste 26 Sudoeste 0 903 -0.8 93
2019-10-18 13:00:00 14.4 11 Sudoeste 26 Sudoeste 0.1 903.7 -0.1 99
2019-10-18 12:00:00 13.9 8 Sudoeste 19 Sudoeste 0 903.9 0.6 99
2019-10-18 11:00:00 13.1 11 Sudoeste 26 Sur 0 903.8 0.5 99
2019-10-18 10:00:00 12.7 10 Sudoeste 22 Sudoeste 0 903.8 0.4 99
2019-10-18 09:00:00 12.4 12 Sudoeste 23 Sudoeste 0 903.3 -0.3 99
2019-10-18 08:00:00 12.3 13 Sudoeste 24 Sudoeste 0 903.3 -0.4 99
2019-10-18 07:00:00 12.1 12 Sudoeste 20 Sudoeste 0.1 903.4 -0.7 99
2019-10-18 06:00:00 11.9 8 Sudoeste 15 Sudoeste 0.1 903.6 -1.1 99
2019-10-18 05:00:00 11.9 8 Sudoeste 18 Sudoeste 0.1 903.7 -1 99
2019-10-18 04:00:00 12 10 Sudoeste 18 Sudoeste 0 904.1 -0.9 99
2019-10-18 03:00:00 11.9 8 Sudoeste 12 Sudoeste 0.1 904.7 -0.7 99
2019-10-18 02:00:00 11.8 4 Oeste 10 Sudoeste 1 904.7 -0.7 99
2019-10-18 01:00:00 11.9 5 Sudoeste 9 Sudoeste 0.1 905 -0.5 99
2019-10-18 00:00:00 11.9 4 Sur 8 Sur 0 905.4 0 99
2019-10-17 23:00:00 11.9 5 Sudeste 8 Sudeste 0 905.4 0.5 99
2019-10-17 22:00:00 11.9 6 Sudeste 28 Sudeste 0 905.5 0.9 98
2019-10-17 21:00:00 12.2 7 Sudeste 13 Sudeste 0 905.4 0.7 95
2019-10-17 20:00:00 12.6 4 Sur 13 Sudoeste 0 904.9 0.2 90
2019-10-17 19:00:00 12.6 7 Sur 18 Sudoeste 0 904.6 -0.3 88
2019-10-17 18:00:00 12.9 7 Sur 14 Sudeste 0 904.7 -0.4 85
2019-10-17 17:00:00 12.8 6 Sur 14 Sur 0 904.7 -0.9 84
2019-10-17 16:00:00 12.9 7 Sur 15 Sur 0 904.9 -0.8 83
2019-10-17 15:00:00 12.5 5 Sur 12 Sudoeste 0 905.1 -0.8 79
2019-10-17 14:00:00 11.7 6 Sur 15 Este 0 905.6 0.1 81
2019-10-17 13:00:00 10.9 4 Sudeste 10 Sur 0 905.7 0.5 87
2019-10-17 12:00:00 9.8 0 Calma 14 Este 0.1 905.9 1.2 90
2019-10-17 11:00:00 8.6 2 Sudoeste 5 Oeste 0.2 905.5 1.4 96
2019-10-17 10:00:00 7.6 2 Sur 5 Este 0.8 905.2 1.4 91
2019-10-17 09:00:00 7.7 0 Calma 5 Sudeste 0.3 904.7 1.3 85
2019-10-17 08:00:00 7.6 5 Este 7 Este 0 904.1 0.2 85
2019-10-17 07:00:00 7.5 5 Este 8 Este 0.1 903.8 0 78
2019-10-17 06:00:00 7.6 5 Este 7 Nordeste 0 903.4 -0.9 75
2019-10-17 05:00:00 7.7 0 Calma 7 Nordeste 0 903.9 -0.6 72
2019-10-17 04:00:00 7.9 3 Nordeste 6 Este 0 903.8 -1 69
2019-10-17 03:00:00 8 4 Nordeste 5 Nordeste 0 904.3 -0.9 65
2019-10-17 02:00:00 8.2 2 Noroeste 10 Sudeste 0 904.5 -0.5 59
2019-10-17 01:00:00 9.5 6 Sudeste 8 Sudeste 0 904.8 -0.1 53
2019-10-17 00:00:00 9.8 4 Sur 9 Oeste 0 905.2 0.4 51
2019-10-16 23:00:00 10.4 6 Oeste 12 Oeste 0 905 0.5 51
2019-10-16 22:00:00 10.7 7 Oeste 15 Oeste 0 904.9 0.5 48
2019-10-16 21:00:00 11.3 8 Oeste 21 Sudoeste 0 904.8 0.9 46
2019-10-16 20:00:00 12.3 12 Sudoeste 19 Sudoeste 0 904.5 0.2 47
2019-10-16 19:00:00 14.2 8 Sudoeste 20 Sur 0 904.4 -0.4 44
2019-10-16 18:00:00 15.6 8 Sur 18 Sudoeste 0 903.9 -1.4 43
2019-10-16 17:00:00 16 8 Sur 19 Sur 0 904.3 -1.9 43
2019-10-16 16:00:00 15.5 10 Sur 31 Sudeste 0 904.8 -1.8 46
2019-10-16 15:00:00 14.4 5 Sur 18 Sudoeste 0 905.3 -1.4 51
2019-10-16 14:00:00 13 4 Sur 15 Sudoeste 0 906.2 -0.7 55
2019-10-16 13:00:00 11.7 5 Sur 12 Sur 0 906.6 0.1 62
2019-10-16 12:00:00 10.5 4 Sudeste 9 Sur 0 906.7 0.6 66
2019-10-16 11:00:00 9.4 4 Sudeste 10 Este 0 906.9 1.2 69
2019-10-16 10:00:00 8.8 2 Este 10 Sudeste 0 906.5 1.1 67
2019-10-16 09:00:00 6.9 4 Sudeste 21 Este 0 906.1 0.6 70
2019-10-16 08:00:00 6 5 Este 9 Sudeste 0 905.7 0 71
2019-10-16 07:00:00 6.2 3 Nordeste 4 Este 0 905.4 -0.7 70
2019-10-16 06:00:00 6.2 2 Oeste 4 Oeste 0 905.5 -1 69
2019-10-16 05:00:00 6.9 2 Sudoeste 5 Sudoeste 0 905.7 -1.1 67
2019-10-16 04:00:00 7.3 3 Este 6 Este 0 906.1 -0.8 68
2019-10-16 03:00:00 7.9 0 Calma 5 Este 0 906.5 -0.2 62
2019-10-16 02:00:00 8.5 3 Norte 11 Nordeste 0 906.8 -0.3 60
2019-10-16 01:00:00 8.8 5 Norte 9 Noroeste 0 906.9 0.3 59
2019-10-16 00:00:00 8.5 3 Noroeste 5 Sur 0 906.7 0.3 62
2019-10-15 23:00:00 8.7 3 Este 11 Sudeste 0 907.1 1.1 60
2019-10-15 22:00:00 8.9 3 Sudoeste 13 Sur 0 906.6 0.9 57
2019-10-15 21:00:00 9.4 5 Sudoeste 18 Sudoeste 0 906.4 0.9 55
2019-10-15 20:00:00 10 8 Sudoeste 19 Sudoeste 0 906 0.5 51
2019-10-15 19:00:00 11.5 12 Sudoeste 28 Sudoeste 0 905.7 0.2 45
2019-10-15 18:00:00 13.4 13 Sudoeste 24 Sudoeste 0 905.5 -0.4 41
2019-10-15 17:00:00 14.5 10 Oeste 25 Oeste 0 905.5 -0.9 38
2019-10-15 16:00:00 13.6 13 Oeste 23 Oeste 0 905.5 -1.2 38
2019-10-15 15:00:00 13.3 9 Sudeste 17 Sur 0 905.9 -1 44
2019-10-15 14:00:00 12.7 5 Sur 19 Sudeste 0 906.4 -0.1 44
2019-10-15 13:00:00 11.3 6 Este 22 Sudeste 0 906.7 0.8 53
2019-10-15 12:00:00 9.8 6 Sudeste 20 Este 0 906.9 2.1 56
2019-10-15 11:00:00 8.1 11 Sudeste 20 Este 0 906.5 1.6 62
2019-10-15 10:00:00 7.4 7 Este 21 Sudeste 0 905.9 1.2 66
2019-10-15 09:00:00 5.1 8 Sur 17 Sur 0 904.8 0.4 70
2019-10-15 08:00:00 5.7 0 Calma 33 Oeste 0 904.9 0.7 65
2019-10-15 07:00:00 5.8 8 Oeste 29 Oeste 0 904.7 0.3 63
2019-10-15 06:00:00 4.9 3 Sudeste 18 Oeste 0 904.4 0.2 69
2019-10-15 05:00:00 5.3 7 Oeste 21 Noroeste 0 904.2 0.7 64
2019-10-15 04:00:00 5.9 6 Noroeste 24 Noroeste 0 904.4 1.1 66
2019-10-15 03:00:00 6.2 7 Oeste 30 Oeste 0 904.2 1.4 64
2019-10-15 02:00:00 6.5 12 Oeste 37 Oeste 0 903.5 1.3 64
2019-10-15 01:00:00 6.7 11 Oeste 24 Noroeste 0 903.3 1.9 73
2019-10-15 00:00:00 6.7 7 Noroeste 22 Oeste 0 902.8 1.5 71
2019-10-14 23:00:00 7 10 Oeste 37 Oeste 0 902.2 1.6 77
2019-10-14 22:00:00 6.9 12 Oeste 33 Oeste 0 901.4 1.1 79
2019-10-14 21:00:00 7.7 12 Oeste 30 Sudoeste 0 901.3 2 82
2019-10-14 20:00:00 7.7 14 Sudoeste 37 Oeste 0.8 900.6 1.7 87
2019-10-14 19:00:00 7.6 15 Oeste 46 Sudoeste 2.6 900.3 1.7 96
2019-10-14 18:00:00 13.4 18 Sudoeste 46 Sudoeste 0 899.3 0.3 45
2019-10-14 17:00:00 15.7 31 Sudoeste 53 Sudoeste 0 898.9 -0.9 39
2019-10-14 16:00:00 15.3 28 Sudoeste 50 Sudoeste 0 898.6 -1.4 37
2019-10-14 15:00:00 14.7 23 Sudoeste 44 Sudoeste 0 899 -1.1 45
2019-10-14 14:00:00 14.2 30 Sudoeste 51 Sudoeste 0 899.8 0.2 57
2019-10-14 13:00:00 12.7 20 Sudoeste 37 Sudoeste 0.2 900 0.6 89
2019-10-14 12:00:00 12.6 19 Sudoeste 42 Sudoeste 0 900.1 1.4 78
2019-10-14 11:00:00 13.8 22 Sudoeste 47 Sudoeste 0 899.6 1 69
2019-10-14 10:00:00 13.7 23 Sudoeste 44 Sur 0 899.4 1.4 68
2019-10-14 09:00:00 13.6 18 Sudoeste 41 Sudoeste 0 898.7 0.4 67
2019-10-14 08:00:00 13.5 8 Sudoeste 14 Sudoeste 0 898.6 0 68
2019-10-14 07:00:00 13.8 8 Sudeste 15 Sudeste 0 898 -0.9 62
2019-10-14 06:00:00 14.3 6 Sudeste 10 Sudeste 0 898.3 -1.4 56
2019-10-14 05:00:00 14.9 7 Sudeste 15 Sudeste 0 898.6 -1.6 53
2019-10-14 04:00:00 15.5 6 Este 16 Sudeste 0 898.9 -2 55
2019-10-14 03:00:00 16.4 9 Sudeste 15 Este 0 899.7 -1.8 55
2019-10-14 02:00:00 16 7 Este 10 Este 0 900.2 -2.1 60
2019-10-14 01:00:00 15.8 5 Este 8 Este 0 900.9 -1.5 57
2019-10-14 00:00:00 15.7 4 Nordeste 8 Nordeste 0 901.5 -1 54
2019-10-13 23:00:00 15.8 4 Nordeste 10 Noroeste 0 902.3 -0.1 55
2019-10-13 22:00:00 15.9 4 Norte 8 Norte 0 902.4 0 55
2019-10-13 21:00:00 16.4 4 Sur 5 Sur 0 902.5 -0.1 52
2019-10-13 20:00:00 17.2 3 Sudoeste 16 Sur 0 902.4 -0.3 49
2019-10-13 19:00:00 19.2 9 Sudoeste 22 Sudoeste 0 902.4 -0.5 44
2019-10-13 18:00:00 20 4 Sur 27 Sur 0 902.6 -0.5 44
2019-10-13 17:00:00 19.3 15 Sur 33 Sur 0 902.7 -1 43
2019-10-13 16:00:00 19.2 9 Sur 22 Sudoeste 0 902.9 -1.2 50
2019-10-13 15:00:00 18.8 12 Sudoeste 22 Sudoeste 0 903.1 -1.3 55
2019-10-13 14:00:00 18.1 11 Sudoeste 26 Sudoeste 0 903.7 -0.4 58
2019-10-13 13:00:00 17.5 10 Sur 28 Sur 0 904.1 0.4 62
2019-10-13 12:00:00 15.4 8 Sur 16 Sur 0 904.4 -- 85
2019-10-13 11:00:00 14.5 7 Sur 12 Sur 0 904.1 -- 98
2019-10-13 10:00:00 14 7 Sudeste 12 Sur 0 903.7 -- 98
2019-10-13 09:00:00 -- -- -- -- -- -- -- -- --
2019-10-13 08:00:00 -- -- -- -- -- -- -- -- --
2019-10-13 07:00:00 -- -- -- -- -- -- -- -- --
2019-10-13 06:00:00 -- -- -- -- -- -- -- -- --
2019-10-13 05:00:00 -- -- -- -- -- -- -- -- --
2019-10-13 04:00:00 -- -- -- -- -- -- -- -- --
2019-10-13 03:00:00 -- -- -- -- -- -- -- -- --
2019-10-13 02:00:00 -- -- -- -- -- -- -- -- --
2019-10-13 01:00:00 14.3 6 Norte 17 Nordeste 0 904.1 -0.2 71
2019-10-13 00:00:00 14.6 10 Nordeste 21 Noroeste 0 904.6 0.6 75
2019-10-12 23:00:00 14.2 4 Nordeste 30 Este 0.5 904.3 1.4 76
2019-10-12 22:00:00 14.1 5 Este 18 Sudeste 0.1 904.3 1.3 76
2019-10-12 21:00:00 13 11 Este 59 Sudoeste 5.8 904 0.7 75
2019-10-12 20:00:00 20 6 Sudeste 17 Sudeste 0 902.9 -0.7 43
2019-10-12 19:00:00 21 12 Sur 23 Sur 0 903 -0.9 41
2019-10-12 18:00:00 22.7 9 Sur 22 Sur 0 903.3 -1.1 40
2019-10-12 17:00:00 21.7 9 Sur 19 Sur 0 903.6 -1.6 45
2019-10-12 16:00:00 22.1 5 Sur 16 Sur 0 903.9 -1.5 47
2019-10-12 15:00:00 21.8 4 Sudeste 15 Sudeste 0 904.4 -1.4 49
2019-10-12 14:00:00 20.5 9 Sudeste 33 Este 0 905.2 -0.6 52
2019-10-12 13:00:00 19.7 6 Este 33 Este 0 905.4 0.2 58
2019-10-12 12:00:00 17.3 9 Sudeste 16 Este 0 905.8 0.6 67
2019-10-12 11:00:00 16.5 8 Este 13 Este 0 905.8 1 68
2019-10-12 10:00:00 16.1 8 Este 12 Este 0 905.2 0.6 70
2019-10-12 09:00:00 15.1 2 Este 16 Sudeste 0 905.2 0.6 70
2019-10-12 08:00:00 15.7 4 Sudeste 23 Sur 0 904.8 0.1 68
2019-10-12 07:00:00 15.8 7 Este 13 Este 0 904.6 -0.3 62
2019-10-12 06:00:00 15.9 8 Este 11 Este 0 904.6 -0.5 60
2019-10-12 05:00:00 16.5 0 Calma 6 Norte 0 904.7 -0.6 59
2019-10-12 04:00:00 17 2 Este 9 Sur 0 904.9 -0.5 57
2019-10-12 03:00:00 17.8 2 Sur 10 Sudeste 0 905.1 -0.6 56
2019-10-12 02:00:00 18 8 Sudeste 13 Sudeste 0 905.3 -0.2 59
2019-10-12 01:00:00 18.8 6 Este 8 Este 0 905.4 -0.2 58
2019-10-12 00:00:00 19.2 2 Norte 9 Norte 0 905.7 0.5 58
2019-10-11 23:00:00 18.9 3 Nordeste 7 Este 0 905.5 0.3 59
2019-10-11 22:00:00 18.9 3 Noroeste 6 Oeste 0 905.6 0.3 58
2019-10-11 21:00:00 19.1 3 Noroeste 7 Sudoeste 0 905.2 -0.2 57
2019-10-11 20:00:00 19.7 5 Sudoeste 11 Sudoeste 0 905.2 -0.4 54
2019-10-11 19:00:00 21.4 5 Sudoeste 13 Sudeste 0 905.3 -0.8 50
2019-10-11 18:00:00 21.8 10 Sur 17 Sudeste 0 905.4 -1.5 50
2019-10-11 17:00:00 22.8 6 Sur 15 Sudeste 0 905.6 -2.2 48
2019-10-11 16:00:00 22 5 Sur 26 Sudeste 0 906.1 -2.3 51
2019-10-11 15:00:00 21.5 8 Sur 17 Sudeste 0 906.9 -1.7 52
2019-10-11 14:00:00 21.2 9 Sudeste 17 Sudeste 0 907.8 -0.9 55
2019-10-11 13:00:00 20.5 6 Sudeste 14 Sur 0 908.4 0.1 58
2019-10-11 12:00:00 19.1 5 Sudeste 13 Sur 0 908.6 0.8 62
2019-10-11 11:00:00 18.7 0 Calma 6 Oeste 0 908.7 1.1 69
2019-10-11 10:00:00 16.6 0 Calma 11 Sudeste 0 908.3 0.9 79
2019-10-11 09:00:00 14.2 0 Calma -- -- 0 907.8 0.6 91
2019-10-11 08:00:00 13.8 0 Calma 4 Sudeste 0 907.6 0.3 88
2019-10-11 07:00:00 14.6 4 Sudeste 6 Sudeste 0 907.4 0.2 83
2019-10-11 06:00:00 14.7 2 Este 8 Este 0 907.2 -0.4 79
2019-10-11 05:00:00 15.3 5 Este 8 Este 0 907.3 -0.4 71
2019-10-11 04:00:00 15 0 Calma 4 Sudoeste 0 907.2 -0.5 66
2019-10-11 03:00:00 15.7 0 Calma 7 Norte 0 907.6 0.1 63
2019-10-11 02:00:00 15.4 5 Norte 11 Noroeste 0 907.7 0.5 62
2019-10-11 01:00:00 16.4 6 Nordeste 21 Nordeste 0 907.7 0.6 60
2019-10-11 00:00:00 16.3 4 Noroeste 7 Noroeste 0 907.5 0.7 58
2019-10-10 23:00:00 17.7 3 Norte 29 Sudeste 0 907.2 0.5 55
2019-10-10 22:00:00 18.4 3 Norte 23 Sudeste 0 907.1 0.7 53
2019-10-10 21:00:00 19.1 0 Calma 9 Sur 0 906.8 0.5 51
2019-10-10 20:00:00 19.8 3 Sur 12 Sur 0 906.7 0.3 48
2019-10-10 19:00:00 21.5 6 Sur 18 Sur 0 906.4 -0.3 46
2019-10-10 18:00:00 22.7 4 Sur 14 Sur 0 906.3 -1 46
2019-10-10 17:00:00 22.8 4 Sudeste 17 Sur 0 906.4 -1.5 47
2019-10-10 16:00:00 22.1 4 Sur 17 Este 0 906.7 -1.8 52
2019-10-10 15:00:00 20.7 4 Este 18 Este 0 907.3 -1.3 58
2019-10-10 14:00:00 19.7 5 Este 26 Sur 0 907.9 -0.6 62
2019-10-10 13:00:00 17.3 4 Nordeste 18 Este 0 908.5 0.8 69
2019-10-10 12:00:00 16.1 2 Este 8 Sudeste 0 908.6 1.4 68
2019-10-10 11:00:00 14.8 0 Calma 6 Sur 0 908.5 1.8 62
2019-10-10 10:00:00 15 2 Sudeste 9 Sudeste 0 907.7 1 62
2019-10-10 09:00:00 13.7 0 Calma 5 Sudoeste 0 907.2 0.8 62
2019-10-10 08:00:00 14.5 0 Calma 9 Norte 0 906.7 0.4 64
2019-10-10 07:00:00 12.7 4 Nordeste 13 Norte 0 906.7 0.5 62
2019-10-10 06:00:00 12.2 7 Norte 15 Nordeste 0 906.4 0.3 61
2019-10-10 05:00:00 12.5 3 Noroeste 33 Nordeste 0 906.3 0.3 58
2019-10-10 04:00:00 13.7 10 Este 25 Este 0 906.2 0.1 53
2019-10-10 03:00:00 14.3 3 Noroeste 14 Nordeste 0 906.1 0.2 48
2019-10-10 02:00:00 15.8 7 Nordeste 18 Nordeste 0 906 0.5 46
2019-10-10 01:00:00 14.5 3 Noroeste 14 Este 0 906.1 1 47
2019-10-10 00:00:00 16.6 9 Este 24 Este 0 905.9 1.3 42
2019-10-09 23:00:00 19.5 5 Este 26 Sudeste 0 905.5 1.2 39
2019-10-09 22:00:00 19.4 3 Este 41 Sudeste 0 905.1 1.3 39
2019-10-09 21:00:00 20.1 5 Nordeste 17 Nordeste 0 904.6 0.8 38
2019-10-09 20:00:00 20.9 6 Nordeste 13 Este 0 904.3 0.4 39
2019-10-09 19:00:00 24.3 0 Calma 13 Este 0 903.8 -0.3 36
2019-10-09 18:00:00 25.5 7 Sur 18 Sur 0 903.8 -0.6 36
2019-10-09 17:00:00 25.7 7 Sur 22 Sur 0 903.9 -1.1 36
2019-10-09 16:00:00 25.6 6 Sur 17 Sur 0 904.1 -1.2 37
2019-10-09 15:00:00 24.9 6 Sur 17 Sudoeste 0 904.4 -1.2 38
2019-10-09 14:00:00 24 5 Sudeste 18 Sur 0 905 -0.4 42
2019-10-09 13:00:00 22.6 5 Sudeste 21 Sudeste 0 905.3 0.5 47
2019-10-09 12:00:00 21.6 6 Sudeste 17 Este 0 905.6 0.9 47
2019-10-09 11:00:00 19.7 4 Sur 9 Sur 0 905.4 0.8 51
2019-10-09 10:00:00 17.6 3 Oeste 9 Oeste 0 904.8 0.9 57
2019-10-09 09:00:00 16.2 4 Oeste 11 Oeste 0 904.7 0.6 57
2019-10-09 08:00:00 15.5 6 Noroeste 12 Noroeste 0 904.6 0.5 53
2019-10-09 07:00:00 16 0 Calma 8 Noroeste 0 903.9 -0.2 50
2019-10-09 06:00:00 16.3 2 Noroeste 5 Noroeste 0 904.1 -0.4 49
2019-10-09 05:00:00 16.7 0 Calma 9 Norte 0 904.1 -0.6 47
2019-10-09 04:00:00 17.5 4 Sudoeste 8 Sur 0 904.1 -0.8 45
2019-10-09 03:00:00 18.7 5 Sur 8 Sur 0 904.5 -0.7 43
2019-10-09 02:00:00 19.6 5 Sur 7 Noroeste 0 904.7 -0.6 42
2019-10-09 01:00:00 20.6 6 Norte 13 Noroeste 0 904.9 -0.4 40
2019-10-09 00:00:00 20.6 6 Norte 12 Norte 0 905.2 0.2 38
2019-10-08 23:00:00 20.6 5 Norte 19 Este 0 905.3 0.5 37
2019-10-08 22:00:00 20.8 4 Oeste 18 Sur 0 905.3 0.6 37
2019-10-08 21:00:00 21.7 3 Sudoeste 10 Sur 0 905 0.3 36
2019-10-08 20:00:00 23 6 Sur 15 Sur 0 904.8 -0.3 34
2019-10-08 19:00:00 24.9 9 Sur 21 Sur 0 904.7 -0.8 33
2019-10-08 18:00:00 26.1 9 Sur 21 Sudeste 0 904.7 -1.1 32
2019-10-08 17:00:00 26.4 9 Sur 22 Sur 0 905.1 -1.4 33
2019-10-08 16:00:00 26 9 Sudoeste 23 Sur 0 905.5 -1.7 33
2019-10-08 15:00:00 25.2 11 Sur 22 Sur 0 905.8 -1.9 34
2019-10-08 14:00:00 24.5 8 Sur 19 Este 0 906.5 -1.2 35
2019-10-08 13:00:00 23 6 Sur 17 Sudeste 0 907.2 -0.1 37
2019-10-08 12:00:00 21.9 4 Sur 15 Sudeste 0 907.7 0.7 39
2019-10-08 11:00:00 20.2 8 Sur 20 Sudeste 0 907.7 0.8 40
2019-10-08 10:00:00 18.9 3 Sudeste 9 Sudeste 0 907.3 0.9 42
2019-10-08 09:00:00 15.3 4 Oeste 7 Este 0 907 0.7 47
2019-10-08 08:00:00 15.8 3 Sudoeste 8 Sudeste 0 906.9 0.3 46
2019-10-08 07:00:00 15 5 Noroeste 9 Noroeste 0 906.4 -0.3 47
2019-10-08 06:00:00 15.5 4 Norte 6 Norte 0 906.3 -1 45
2019-10-08 05:00:00 16.1 2 Este 9 Sudeste 0 906.6 -0.6 43
2019-10-08 04:00:00 16.9 3 Sur 5 Nordeste 0 906.7 -0.4 42
2019-10-08 03:00:00 16.5 4 Nordeste 7 Sudeste 0 907.3 -0.2 43
2019-10-08 02:00:00 17.8 2 Este 5 Este 0 907.2 -0.2 41
2019-10-08 01:00:00 17.9 3 Noroeste 9 Norte 0 907.1 0.2 42
2019-10-08 00:00:00 18.3 4 Norte 10 Noroeste 0 907.5 0.9 41
2019-10-07 23:00:00 19.9 2 Sudoeste 22 Sudeste 0 907.4 1 37
2019-10-07 22:00:00 20.6 3 Nordeste 21 Este 0 906.9 0.6 35
2019-10-07 21:00:00 20.9 3 Nordeste 16 Norte 0 906.6 0.6 34
2019-10-07 20:00:00 21.6 3 Nordeste 15 Este 0 906.4 0.1 34
2019-10-07 19:00:00 24.6 8 Este 13 Este 0 906.3 -0.1 33
2019-10-07 18:00:00 26 8 Sur 15 Sudeste 0 906 -0.6 32
2019-10-07 17:00:00 26.2 2 Sur 22 Sur 0 906.3 -0.9 32
2019-10-07 16:00:00 25.5 9 Sur 18 Sudeste 0 906.4 -0.9 33
2019-10-07 15:00:00 24.5 8 Sudeste 17 Este 0 906.6 -0.9 33
2019-10-07 14:00:00 23.6 5 Sur 14 Sur 0 907.2 -0.3 34
2019-10-07 13:00:00 22.4 4 Sur 11 Sur 0 907.3 0.3 35
2019-10-07 12:00:00 20.1 0 Calma 16 Este 0 907.5 0.8 40
2019-10-07 11:00:00 19 5 Sur 14 Sur 0 907.5 1.2 42
2019-10-07 10:00:00 16.4 0 Calma 5 Oeste 0 907 0.6 47
2019-10-07 09:00:00 14.3 0 Calma 6 Sudoeste 0 906.7 0.5 49
2019-10-07 08:00:00 13.2 2 Sudoeste 6 Sudoeste 0 906.3 0.3 48
2019-10-07 07:00:00 13.7 3 Este 10 Sur 0 906.4 0.1 45
2019-10-07 06:00:00 15.4 6 Sur 11 Sudeste 0 906.2 -0.5 41
2019-10-07 05:00:00 15.4 4 Nordeste 9 Sudeste 0 906 -0.9 41
2019-10-07 04:00:00 15.6 4 Este 10 Sudeste 0 906.3 -0.9 40
2019-10-07 03:00:00 15.6 5 Este 10 Sudeste 0 906.7 -0.6 39
2019-10-07 02:00:00 16.5 4 Este 8 Este 0 906.9 -0.1 35
2019-10-07 01:00:00 17.4 3 Nordeste 15 Oeste 0 907.2 0.4 33
2019-10-07 00:00:00 17.2 0 Calma 19 Norte 0 907.3 0.7 34
2019-10-06 23:00:00 18.3 9 Noroeste 22 Norte 0 907 1.1 34
2019-10-06 22:00:00 18.6 9 Norte 20 Norte 0 906.8 1.1 37
2019-10-06 21:00:00 19.2 6 Norte 21 Noroeste 0 906.6 1 33
2019-10-06 20:00:00 20.3 7 Nordeste 18 Norte 0 905.9 -0.2 32
2019-10-06 19:00:00 23 6 Sudeste 19 Sudeste 0 905.7 -0.7 33
2019-10-06 18:00:00 23.8 11 Sudeste 22 Sur 0 905.6 -1 33
2019-10-06 17:00:00 24 10 Sudeste 17 Sudeste 0 906.1 -1.1 33
2019-10-06 16:00:00 24.2 9 Sudeste 18 Este 0 906.4 -1.1 33
2019-10-06 15:00:00 23.5 8 Sur 17 Sur 0 906.6 -1 34
2019-10-06 14:00:00 22.6 6 Sur 18 Sur 0 907.2 -0.2 35
2019-10-06 13:00:00 21.7 5 Sudeste 15 Sur 0 907.5 0.5 37
2019-10-06 12:00:00 19.8 8 Sudoeste 17 Sur 0 907.6 1.3 37
2019-10-06 11:00:00 19 6 Sur 10 Sur 0 907.4 1.6 41
2019-10-06 10:00:00 17.8 4 Sudeste 9 Sur 0 907 1.8 47
2019-10-06 09:00:00 14.6 3 Oeste 7 Oeste 0 906.3 0.9 51
2019-10-06 08:00:00 13.3 4 Noroeste 10 Oeste 0 905.8 0.6 53
2019-10-06 07:00:00 14 5 Sudoeste 11 Sudoeste 0 905.2 -0.3 51
2019-10-06 06:00:00 14 4 Noroeste 8 Noroeste 0 905.4 -0.2 48
2019-10-06 05:00:00 14 6 Noroeste 10 Oeste 0 905.2 -0.3 47
2019-10-06 04:00:00 14.7 4 Oeste 10 Oeste 0 905.5 0.1 45
2019-10-06 03:00:00 15.4 0 Calma 5 Norte 0 905.6 0.2 44
2019-10-06 02:00:00 16.1 4 Oeste 11 Oeste 0 905.5 0.4 45
2019-10-06 01:00:00 16.2 6 Oeste 10 Oeste 0 905.4 0.3 42
2019-10-06 00:00:00 17.3 4 Oeste 11 Norte 0 905.4 1 41
2019-10-05 23:00:00 18.2 9 Norte 21 Nordeste 0 905.1 0.8 39
2019-10-05 22:00:00 18.1 7 Norte 16 Norte 0 905.1 1.3 43
2019-10-05 21:00:00 19.5 3 Sudoeste 10 Sudeste 0 904.4 0.9 39
2019-10-05 20:00:00 21 7 Sur 14 Sur 0 904.3 0.7 37
2019-10-05 19:00:00 23 10 Sur 19 Sur 0 903.8 0.1 36
2019-10-05 18:00:00 24.3 9 Sur 22 Sudeste 0 903.5 -0.6 36
2019-10-05 17:00:00 24.2 10 Sur 26 Sudeste 0 903.6 -1.2 37
2019-10-05 16:00:00 23.8 10 Sur 23 Sudeste 0 903.7 -1.2 38
2019-10-05 15:00:00 22.9 10 Sur 20 Sur 0 904.1 -1 40
2019-10-05 14:00:00 22.2 9 Sur 19 Sudoeste 0 904.8 -0.3 42
2019-10-05 13:00:00 21.1 12 Sur 23 Sur 0 904.9 0.4 45
2019-10-05 12:00:00 20 6 Sur 14 Sur 0 905.1 0.9 49
2019-10-05 11:00:00 18.4 6 Sudoeste 11 Sudoeste 0 905.1 1.4 53
2019-10-05 10:00:00 16.1 3 Noroeste 10 Noroeste 0 904.5 0.8 55
2019-10-05 09:00:00 13.7 6 Noroeste 10 Noroeste 0 904.2 0.6 57
2019-10-05 08:00:00 13.2 5 Noroeste 10 Noroeste 0 903.7 0.1 62
2019-10-05 07:00:00 13.4 4 Noroeste 7 Oeste 0 903.7 0.1 62
2019-10-05 06:00:00 13.7 4 Oeste 6 Oeste 0 903.6 -0.1 55
2019-10-05 05:00:00 14.5 2 Noroeste 7 Oeste 0 903.6 -0.1 54
2019-10-05 04:00:00 14.7 4 Oeste 6 Oeste 0 903.6 -0.3 53
2019-10-05 03:00:00 15.7 0 Calma 6 Sudoeste 0 903.7 -0.2 51
2019-10-05 02:00:00 16.4 0 Calma 7 Este 0 903.7 -0.2 45
2019-10-05 01:00:00 17 4 Este 14 Nordeste 0 903.9 0.1 42
2019-10-05 00:00:00 17.9 6 Norte 13 Norte 0 903.9 0.3 42
2019-10-04 23:00:00 18 4 Noroeste 8 Norte 0 903.9 0.3 36
2019-10-04 22:00:00 18.5 6 Oeste 14 Sudoeste 0 903.8 0.7 35
2019-10-04 21:00:00 19.3 6 Sudoeste 16 Sudoeste 0 903.6 0.5 34
2019-10-04 20:00:00 21.1 9 Sudoeste 22 Sudoeste 0 903.6 0.1 33
2019-10-04 19:00:00 23.2 13 Sudoeste 23 Sudoeste 0 903.1 -1 31
2019-10-04 18:00:00 24.4 9 Sur 22 Sur 0 903.1 -1.3 30
2019-10-04 17:00:00 24.5 11 Sur 22 Sudoeste 0 903.5 -1.8 30
2019-10-04 16:00:00 24 10 Sudoeste 24 Sudoeste 0 904.1 -1.6 31
2019-10-04 15:00:00 22.8 12 Sur 22 Sur 0 904.4 -1.8 33
2019-10-04 14:00:00 22.7 8 Sur 23 Sur 0 905.3 -0.8 33
2019-10-04 13:00:00 20.8 10 Sur 24 Sudeste 0 905.7 -0.3 35
2019-10-04 12:00:00 20.1 8 Sudeste 20 Este 0 906.2 0.3 36
2019-10-04 11:00:00 18.8 5 Sudeste 15 Sudeste 0 906.1 0.6 39
2019-10-04 10:00:00 17 0 Calma 8 Noroeste 0 906 0.6 41
2019-10-04 09:00:00 14.3 4 Noroeste 7 Noroeste 0 905.9 0.5 43
2019-10-04 08:00:00 13.5 2 Noroeste 5 Noroeste 0 905.5 -0.1 43
2019-10-04 07:00:00 13.4 0 Calma 4 Oeste 0 905.4 -0.1 44
2019-10-04 06:00:00 13.3 4 Noroeste 8 Noroeste 0 905.4 -0.2 44
2019-10-04 05:00:00 13.8 4 Noroeste 6 Noroeste 0 905.6 -0.2 43
2019-10-04 04:00:00 14.6 3 Sudoeste 9 Oeste 0 905.5 -0.7 42
2019-10-04 03:00:00 15.3 3 Noroeste 9 Norte 0 905.6 -0.7 41
2019-10-04 02:00:00 15.9 0 Calma 5 Noroeste 0 905.8 -0.5 40
2019-10-04 01:00:00 15.7 5 Noroeste 9 Norte 0 906.2 0.3 40
2019-10-04 00:00:00 16.1 4 Noroeste 9 Noroeste 0 906.3 0.6 39
2019-10-03 23:00:00 16.1 5 Noroeste 10 Norte 0 906.3 0.8 39
2019-10-03 22:00:00 17.2 2 Norte 14 Este 0 905.9 1 38
2019-10-03 21:00:00 17.9 6 Este 10 Este 0 905.7 0.5 37
2019-10-03 20:00:00 19.3 8 Este 17 Este 0 905.5 0.1 36
2019-10-03 19:00:00 21.2 9 Este 18 Este 0 904.9 -0.7 33
2019-10-03 18:00:00 22.4 9 Sudeste 17 Sudeste 0 905.2 -0.4 33
2019-10-03 17:00:00 22.6 9 Sudeste 27 Sur 0 905.4 -0.9 33
2019-10-03 16:00:00 21.7 5 Sur 20 Sur 0 905.6 -0.8 35
2019-10-03 15:00:00 21 7 Sur 19 Sur 0 905.6 -1.3 37
2019-10-03 14:00:00 19.1 6 Sur 16 Sudeste 0 906.3 -0.5 40
2019-10-03 13:00:00 18 5 Sur 13 Sudeste 0 906.4 0 44
2019-10-03 12:00:00 16.2 2 Sur 14 Sur 0 906.9 0.6 49
2019-10-03 11:00:00 14.2 2 Sur 13 Sudeste 0 906.8 1.1 55
2019-10-03 10:00:00 12.9 2 Sur 8 Sudoeste 0 906.4 0.9 58
2019-10-03 09:00:00 9.5 0 Calma 4 Sudoeste 0 906.3 0.8 66
2019-10-03 08:00:00 8.9 0 Calma 7 Noroeste 0 905.7 0.3 64
2019-10-03 07:00:00 9.3 4 Oeste 6 Oeste 0 905.5 -0.1 62
2019-10-03 06:00:00 9.7 3 Sudoeste 8 Oeste 0 905.5 -0.6 59
2019-10-03 05:00:00 10.6 0 Calma 6 Sudeste 0 905.4 -0.8 54
2019-10-03 04:00:00 11 4 Sur 8 Sudeste 0 905.6 -0.8 51
2019-10-03 03:00:00 12.1 3 Noroeste 5 Noroeste 0 906.1 -0.6 47
2019-10-03 02:00:00 12.8 2 Norte 6 Norte 0 906.2 -0.2 45
2019-10-03 01:00:00 12.3 2 Noroeste 7 Norte 0 906.4 0.2 47
2019-10-03 00:00:00 13.2 3 Norte 10 Nordeste 0 906.7 1 45
2019-10-02 23:00:00 13.8 6 Nordeste 19 Este 0 906.4 0.7 45
2019-10-02 22:00:00 14.4 6 Nordeste 15 Norte 0 906.2 0.7 43
2019-10-02 21:00:00 15.1 6 Nordeste 16 Nordeste 0 905.7 0.8 42
2019-10-02 20:00:00 16.3 3 Este 13 Nordeste 0 905.7 0.6 41
2019-10-02 19:00:00 18.5 9 Sudeste 20 Nordeste 0 905.5 0.2 38
2019-10-02 18:00:00 19.3 6 Nordeste 26 Nordeste 0 904.9 0 37
2019-10-02 17:00:00 19.7 6 Nordeste 20 Nordeste 0 905.1 -0.5 36
2019-10-02 16:00:00 19.6 9 Nordeste 21 Nordeste 0 905.3 -0.3 35
2019-10-02 15:00:00 19 10 Nordeste 30 Este 0 904.9 -0.9 36
2019-10-02 14:00:00 18.1 5 Nordeste 19 Sur 0 905.6 0.3 41
2019-10-02 13:00:00 17.1 5 Sudeste 23 Sudoeste 0 905.6 1 47
2019-10-02 12:00:00 16.2 5 Sur 15 Sudeste 0 905.8 1.6 49
2019-10-02 11:00:00 15 6 Este 22 Este 0 905.3 1.6 51
2019-10-02 10:00:00 12.9 4 Sudoeste 8 Sudeste 0 904.6 1.6 57
2019-10-02 09:00:00 11 0 Calma 8 Oeste 0 904.2 1.4 61
2019-10-02 08:00:00 10.6 2 Este 12 Este 0 903.7 0.9 62
2019-10-02 07:00:00 11 6 Este 13 Este 0 903 0.3 59
2019-10-02 06:00:00 11 4 Noroeste 23 Oeste 0 902.8 -0.1 57
2019-10-02 05:00:00 12.5 6 Oeste 22 Sudoeste 0 902.8 -0.4 55
2019-10-02 04:00:00 12.8 8 Oeste 18 Oeste 0 902.7 -0.5 55
2019-10-02 03:00:00 13 9 Oeste 19 Sudoeste 0 902.9 -0.4 55
2019-10-02 02:00:00 14.1 3 Sudeste 32 Oeste 0 903.2 0 49
2019-10-02 01:00:00 15.5 18 Oeste 35 Sudoeste 0 903.2 0.4 46
2019-10-02 00:00:00 15.7 14 Oeste 28 Oeste 0 903.3 0.8 45
2019-10-01 23:00:00 15.6 14 Oeste 39 Oeste 0 903.2 1 46
2019-10-01 22:00:00 15.6 12 Oeste 37 Oeste 0 902.8 0.8 45
2019-10-01 21:00:00 16.3 8 Oeste 26 Oeste 0 902.5 0.9 43
2019-10-01 20:00:00 17.7 10 Noroeste 32 Oeste 0 902.2 0.6 40
2019-10-01 19:00:00 20 14 Oeste 39 Oeste 0 902 0.4 36
2019-10-01 18:00:00 21.7 15 Oeste 35 Oeste 0 901.6 -0.1 35
2019-10-01 17:00:00 22.7 14 Oeste 35 Oeste 0 901.6 -0.4 33
2019-10-01 16:00:00 23.7 13 Oeste 28 Oeste 0 901.6 -0.9 28
2019-10-01 15:00:00 23.4 10 Este 19 Este 0 901.7 -1 29
2019-10-01 14:00:00 22.6 6 Sur 40 Sudeste 0 902 -0.6 31
2019-10-01 13:00:00 22.4 4 Sudeste 18 Este 0 902.5 0.6 31
2019-10-01 12:00:00 21.3 5 Sur 11 Sudeste 0 902.7 1 32
2019-10-01 11:00:00 19.1 4 Sudeste 11 Sudeste 0 902.6 0.9 31
2019-10-01 10:00:00 18.4 5 Sudeste 12 Este 0 901.9 0.6 31
2019-10-01 09:00:00 15.5 6 Este 8 Nordeste 0 901.7 0.3 33
2019-10-01 08:00:00 15.2 4 Sur 6 Sudoeste 0 901.7 0.1 32
2019-10-01 07:00:00 15.2 0 Calma 5 Sudeste 0 901.3 -1.1 32
2019-10-01 06:00:00 15.9 3 Sudeste 6 Sudoeste 0 901.4 -1.5 30
2019-10-01 05:00:00 16.4 0 Calma 6 Sur 0 901.6 -1.4 30
2019-10-01 04:00:00 16.5 4 Sur 9 Sudeste 0 902.4 -1 29
2019-10-01 03:00:00 16.8 4 Este 9 Sudeste 0 902.9 -0.6 29
2019-10-01 02:00:00 17.5 4 Noroeste 9 Noroeste 0 903 -0.6 28
2019-10-01 01:00:00 17.9 4 Noroeste 9 Oeste 0 903.4 -0.3 27
2019-10-01 00:00:00 18.5 5 Oeste 10 Norte 0 903.5 -0.1 26
2019-09-30 23:00:00 18.7 4 Noroeste 8 Oeste 0 903.6 0 25
2019-09-30 22:00:00 20.3 4 Noroeste 18 Oeste 0 903.7 0.4 24
2019-09-30 21:00:00 20.2 6 Oeste 14 Sur 0 903.6 0 25
2019-09-30 20:00:00 22.4 7 Sudoeste 33 Este 0 903.6 -0.6 24
2019-09-30 19:00:00 24.4 9 Sudoeste 30 Sudeste 0 903.3 -1.3 22
2019-09-30 18:00:00 25.4 11 Sudoeste 27 Sudoeste 0 903.6 -1.4 22
2019-09-30 17:00:00 25.4 10 Sur 27 Sur 0 904.2 -1.5 22
2019-09-30 16:00:00 25.3 12 Sur 27 Sur 0 904.6 -1.5 23
2019-09-30 15:00:00 24.8 12 Sur 24 Sudoeste 0 905 -1.4 26
2019-09-30 14:00:00 23.9 8 Sur 22 Sudeste 0 905.7 -0.7 27
2019-09-30 13:00:00 23 9 Sur 19 Sur 0 906.1 -0.2 28
2019-09-30 12:00:00 22.7 6 Sur 15 Sur 0 906.4 0.5 30
2019-09-30 11:00:00 21.4 2 Oeste 9 Oeste 0 906.4 0.7 30
2019-09-30 10:00:00 19.2 3 Noroeste 8 Norte 0 906.3 1 32
2019-09-30 09:00:00 16.3 4 Norte 6 Noroeste 0 905.9 0.5 34
2019-09-30 08:00:00 15.3 5 Oeste 7 Oeste 0 905.7 0.1 33
2019-09-30 07:00:00 15.1 4 Noroeste 6 Noroeste 0 905.3 -0.5 33
2019-09-30 06:00:00 15.7 4 Oeste 6 Noroeste 0 905.4 -0.7 32
2019-09-30 05:00:00 15.2 5 Oeste 6 Noroeste 0 905.6 -0.4 33
2019-09-30 04:00:00 15.7 5 Noroeste 7 Sur 0 905.8 -0.3 32
2019-09-30 03:00:00 18.1 4 Sudoeste 9 Oeste 0 906.1 -0.2 29
2019-09-30 02:00:00 18 4 Noroeste 6 Noroeste 0 906 -0.2 27
2019-09-30 01:00:00 18.7 3 Noroeste 9 Norte 0 906.1 0.1 28
2019-09-30 00:00:00 19 4 Noroeste 12 Noroeste 0 906.3 0.7 29
2019-09-29 23:00:00 19.2 4 Noroeste 9 Noroeste 0 906.2 1.1 30
2019-09-29 22:00:00 20 4 Noroeste 9 Noroeste 0 906 0.9 29
2019-09-29 21:00:00 20.5 5 Oeste 15 Sudoeste 0 905.6 0.5 28
2019-09-29 20:00:00 23.1 9 Sudoeste 18 Sudoeste 0 905.1 -0.3 26
2019-09-29 19:00:00 25.8 8 Sudoeste 20 Sur 0 905.1 -0.8 25
2019-09-29 18:00:00 26.7 10 Sur 21 Sudeste 0 905.1 -1.1 25
2019-09-29 17:00:00 27.4 9 Sur 21 Sudoeste 0 905.4 -1.5 25
2019-09-29 16:00:00 26.5 7 Sudoeste 22 Sudoeste 0 905.9 -1.3 27
2019-09-29 15:00:00 25.7 10 Sur 25 Sur 0 906.2 -1 28
2019-09-29 14:00:00 24.2 9 Sur 17 Sur 0 906.9 -0.1 30
2019-09-29 13:00:00 22.6 7 Sur 14 Sur 0 907.2 0.7 31
2019-09-29 12:00:00 21.2 8 Sudeste 13 Sur 0 907.2 0.8 32
2019-09-29 11:00:00 20.4 3 Sudeste 10 Sur 0 907 1.1 33
2019-09-29 10:00:00 18.4 3 Sur 5 Sur 0 906.5 0.6 33
2019-09-29 09:00:00 15.8 0 Calma 8 Norte 0 906.4 0.5 33
2019-09-29 08:00:00 15 5 Este 8 Sudeste 0 905.9 -0.2 33
2019-09-29 07:00:00 15.7 2 Nordeste 7 Norte 0 905.9 -0.3 32
2019-09-29 06:00:00 15.3 4 Noroeste 7 Noroeste 0 905.9 -0.7 32
2019-09-29 05:00:00 16.4 2 Sudeste 7 Sudeste 0 906.1 -0.5 30
2019-09-29 04:00:00 16.9 0 Calma 5 Sudeste 0 906.2 -0.7 30
2019-09-29 03:00:00 17.3 3 Este 5 Noroeste 0 906.6 -0.3 30
2019-09-29 02:00:00 16.7 4 Noroeste 7 Noroeste 0 906.6 -0.4 31
2019-09-29 01:00:00 17.2 5 Noroeste 6 Noroeste 0 906.9 -0.1 30
2019-09-29 00:00:00 18 4 Noroeste 8 Noroeste 0 906.9 0.2 29
2019-09-28 23:00:00 17.9 3 Noroeste 8 Noroeste 0 907 0.6 29
2019-09-28 22:00:00 18.7 3 Noroeste 8 Noroeste 0 907 0.7 28
2019-09-28 21:00:00 20.7 5 Sur 11 Sur 0 906.7 0.2 26
2019-09-28 20:00:00 22 8 Sur 19 Sur 0 906.4 -0.1 26
2019-09-28 19:00:00 24.1 12 Sur 20 Sur 0 906.3 -0.7 25
2019-09-28 18:00:00 25.5 9 Sur 22 Sudeste 0 906.5 -0.9 26
2019-09-28 17:00:00 25.6 8 Sur 24 Sur 0 906.5 -1.7 26
2019-09-28 16:00:00 25.2 8 Sur 17 Sudoeste 0 907 -1.5 27
2019-09-28 15:00:00 24 9 Sudeste 19 Sur 0 907.4 -1.2 30
2019-09-28 14:00:00 23.6 8 Sur 17 Sur 0 908.2 -0.4 31
2019-09-28 13:00:00 22.6 8 Sudeste 15 Este 0 908.5 0.4 33
2019-09-28 12:00:00 21.8 2 Este 11 Este 0 908.6 0.9 34
2019-09-28 11:00:00 21 0 Calma 9 Sudeste 0 908.6 1.4 34
2019-09-28 10:00:00 17.9 2 Noroeste 7 Noroeste 0 908.1 0.9 34
2019-09-28 09:00:00 15.2 4 Noroeste 10 Noroeste 0 907.7 0.7 35
2019-09-28 08:00:00 14.6 4 Noroeste 8 Norte 0 907.2 0.2 35
2019-09-28 07:00:00 14.5 3 Norte 9 Este 0 907.2 0 35
2019-09-28 06:00:00 15 5 Norte 10 Noroeste 0 907 -0.3 34
2019-09-28 05:00:00 14.5 2 Sur 8 Sudeste 0 907 -0.2 34
2019-09-28 04:00:00 14.9 3 Noroeste 6 Noroeste 0 907.2 0.1 33
2019-09-28 03:00:00 15.1 5 Noroeste 8 Oeste 0 907.3 0.2 33
2019-09-28 02:00:00 16.3 2 Sur 10 Este 0 907.2 0.3 32
2019-09-28 01:00:00 16.4 5 Nordeste 9 Nordeste 0 907.1 0.4 31
2019-09-28 00:00:00 17 5 Noroeste 11 Norte 0 907.1 0.8 30
2019-09-27 23:00:00 16.9 6 Noroeste 9 Oeste 0 906.9 1 31
2019-09-27 22:00:00 17.7 5 Oeste 9 Oeste 0 906.7 0.9 30
2019-09-27 21:00:00 19.1 5 Oeste 11 Oeste 0 906.3 0.8 30
2019-09-27 20:00:00 21.1 4 Noroeste 15 Noroeste 0 905.9 0.4 28
2019-09-27 19:00:00 24 9 Oeste 22 Oeste 0 905.8 0 23
2019-09-27 18:00:00 26.1 10 Oeste 22 Oeste 0 905.5 -0.8 20
2019-09-27 17:00:00 26.1 5 Sur 23 Sudeste 0 905.5 -1.4 25
2019-09-27 16:00:00 25.1 7 Sur 19 Sur 0 905.8 -1.5 29
2019-09-27 15:00:00 24.4 8 Sur 21 Sudoeste 0 906.3 -1.2 30
2019-09-27 14:00:00 23.5 8 Sur 17 Sudeste 0 906.9 -0.4 33
2019-09-27 13:00:00 22.2 7 Sur 30 Sudeste 0 907.3 0.4 35
2019-09-27 12:00:00 20.9 9 Sur 26 Sur 0 907.5 1 37
2019-09-27 11:00:00 20.4 4 Sudoeste 9 Sudoeste 0 907.3 1 39
2019-09-27 10:00:00 17.5 2 Oeste 7 Oeste 0 906.9 0.5 44
2019-09-27 09:00:00 15.2 4 Noroeste 9 Oeste 0 906.5 0.1 49
2019-09-27 08:00:00 14.8 5 Noroeste 8 Noroeste 0 906.3 0 49
2019-09-27 07:00:00 15.6 3 Noroeste 8 Noroeste 0 906.4 0.1 48
2019-09-27 06:00:00 15.7 4 Noroeste 7 Noroeste 0 906.4 -0.3 48
2019-09-27 05:00:00 15.8 4 Noroeste 7 Noroeste 0 906.3 -0.5 45
2019-09-27 04:00:00 15.6 3 Noroeste 8 Norte 0 906.3 -0.8 44
2019-09-27 03:00:00 16.5 4 Norte 8 Noroeste 0 906.7 -0.3 41
2019-09-27 02:00:00 17.3 2 Noroeste 10 Nordeste 0 906.8 -0.2 40
2019-09-27 01:00:00 18 6 Este 16 Norte 0 907.1 0.3 40
2019-09-27 00:00:00 18 5 Nordeste 9 Nordeste 0 907 0.6 42
2019-09-26 23:00:00 18.1 4 Noroeste 8 Noroeste 0 907 0.9 42
2019-09-26 22:00:00 19.3 2 Sudoeste 10 Sudeste 0 906.8 1 39
2019-09-26 21:00:00 20.5 6 Sur 12 Sudeste 0 906.4 0.6 37
2019-09-26 20:00:00 21.6 9 Sur 18 Sudeste 0 906.1 0.1 35
2019-09-26 19:00:00 23.9 9 Sur 20 Sudoeste 0 905.8 -0.5 32
2019-09-26 18:00:00 24.9 8 Sur 22 Sudoeste 0 905.8 -1 32
2019-09-26 17:00:00 24.6 11 Sur 22 Sudoeste 0 906 -1.1 33
2019-09-26 16:00:00 23.9 9 Sur 25 Sur 0 906.3 -1.2 34
2019-09-26 15:00:00 22.9 8 Sur 26 Sudeste 0 906.8 -1.1 37
2019-09-26 14:00:00 21.8 7 Sur 20 Sur 0 907.1 -0.8 39
2019-09-26 13:00:00 20.8 6 Sur 44 Sudeste 0 907.5 0.1 41
2019-09-26 12:00:00 20.2 5 Este 14 Este 0 907.9 1 43
2019-09-26 11:00:00 18.7 3 Sudeste 12 Este 0 907.9 1.5 45
2019-09-26 10:00:00 17.6 0 Calma 6 Este 0 907.4 1.4 48
2019-09-26 09:00:00 14.2 0 Calma 8 Norte 0 906.9 1 54
2019-09-26 08:00:00 13.2 4 Norte 6 Este 0 906.4 0.5 53
2019-09-26 07:00:00 13.9 4 Este 7 Nordeste 0 906 0 53
2019-09-26 06:00:00 13.8 4 Nordeste 6 Nordeste 0 905.9 -0.2 54
2019-09-26 05:00:00 13.9 3 Sur 6 Sur 0 905.9 -0.2 53
2019-09-26 04:00:00 14 0 Calma 6 Este 0 906 -0.2 53
2019-09-26 03:00:00 14.6 3 Noroeste 6 Noroeste 0 906.1 -0.1 51
2019-09-26 02:00:00 14.8 3 Noroeste 7 Noroeste 0 906.1 0.3 51
2019-09-26 01:00:00 15.1 4 Noroeste 6 Noroeste 0 906.2 0.6 49
2019-09-26 00:00:00 16.4 4 Norte 9 Norte 0 906.2 0.8 45
2019-09-25 23:00:00 17 6 Nordeste 8 Nordeste 0 905.8 0.7 45
2019-09-25 22:00:00 17.6 3 Este 8 Nordeste 0 905.6 0.8 43
2019-09-25 21:00:00 18 5 Nordeste 7 Este 0 905.4 0.8 42
2019-09-25 20:00:00 18.9 4 Este 10 Sudeste 0 905.1 0.4 40
2019-09-25 19:00:00 20.2 4 Sudeste 13 Sur 0 904.8 -0.3 37
2019-09-25 18:00:00 21.3 4 Sur 29 Este 0 904.6 -0.8 37
2019-09-25 17:00:00 20.8 6 Sur 24 Sudeste 0 904.7 -1.1 38
2019-09-25 16:00:00 20.5 5 Sur 17 Sudoeste 0 905.1 -0.8 39
2019-09-25 15:00:00 19.6 4 Sudeste 17 Sudeste 0 905.4 -0.6 41
2019-09-25 14:00:00 19.1 8 Sudeste 19 Sur 0 905.8 0 44
2019-09-25 13:00:00 17.8 6 Sur 20 Sur 0 905.9 0.7 47
2019-09-25 12:00:00 17.1 6 Sur 34 Sudeste 0 906 1.3 52
2019-09-25 11:00:00 15.6 5 Sur 14 Sudeste 0 905.8 1.6 58
2019-09-25 10:00:00 14 5 Sur 9 Sudoeste 0 905.2 1.2 64
2019-09-25 09:00:00 11.6 6 Oeste 12 Noroeste 0 904.7 0.8 72
2019-09-25 08:00:00 10.8 4 Oeste 8 Noroeste 0 904.2 0.4 77
2019-09-25 07:00:00 11.1 3 Noroeste 9 Sudeste 0 904 0 67
2019-09-25 06:00:00 12.2 7 Este 22 Este 0 903.9 -0.4 72
2019-09-25 05:00:00 12.6 11 Nordeste 18 Este 0 903.8 -0.6 66
2019-09-25 04:00:00 13.5 8 Oeste 28 Oeste 0 904 -0.7 57
2019-09-25 03:00:00 14.4 13 Oeste 22 Oeste 0 904.3 -0.3 57
2019-09-25 02:00:00 14.4 9 Oeste 27 Oeste 0 904.4 -0.4 60
2019-09-25 01:00:00 15.7 17 Oeste 42 Oeste 0 904.7 -0.1 55
2019-09-25 00:00:00 17.1 16 Oeste 34 Noroeste 0 904.6 0.1 51
2019-09-24 23:00:00 17.3 16 Oeste 30 Oeste 0 904.8 0.5 57
2019-09-24 22:00:00 18 11 Oeste 24 Oeste 0 904.8 0.7 57
2019-09-24 21:00:00 18.9 10 Oeste 24 Oeste 0 904.5 0.3 54
2019-09-24 20:00:00 20.2 9 Oeste 26 Oeste 0 904.3 -0.5 51
2019-09-24 19:00:00 22 6 Oeste 11 Sudoeste 0 904.1 -0.9 42
2019-09-24 18:00:00 22.3 6 Sudoeste 20 Oeste 0 904.2 -1.4 37
2019-09-24 17:00:00 23 7 Sudoeste 24 Sudoeste 0 904.8 -1.6 37
2019-09-24 16:00:00 22.6 12 Sudoeste 23 Sudoeste 0 905 -1.8 37
2019-09-24 15:00:00 22.3 11 Sudeste 25 Sudeste 0 905.6 -1.5 39
2019-09-24 14:00:00 20.7 10 Sur 19 Este 0 906.4 -0.5 42
2019-09-24 13:00:00 18.9 10 Sur 28 Sudeste 0 906.8 0.4 49
2019-09-24 12:00:00 17.1 10 Sudeste 22 Sudeste 0 907.1 0.9 53
2019-09-24 11:00:00 16.3 7 Sudeste 15 Sur 0 906.9 0.9 55
2019-09-24 10:00:00 14.5 5 Sudeste 9 Sudeste 0 906.4 0.4 58
2019-09-24 09:00:00 13.2 0 Calma 5 Sudeste 0 906.2 0.3 59
2019-09-24 08:00:00 12 4 Este 8 Sudeste 0 906 0 58
2019-09-24 07:00:00 12.3 3 Este 5 Nordeste 0 906 -0.6 56
2019-09-24 06:00:00 12.5 3 Nordeste 4 Norte 0 905.9 -1 54
2019-09-24 05:00:00 12.8 0 Calma 7 Este 0 906 -1.1 53
2019-09-24 04:00:00 13.3 5 Este 8 Este 0 906.6 -0.8 51
2019-09-24 03:00:00 13.8 0 Calma 5 Sur 0 906.9 -0.8 49
2019-09-24 02:00:00 14.6 4 Sur 7 Oeste 0 907.1 -0.9 48
2019-09-24 01:00:00 14.6 5 Oeste 9 Oeste 0 907.4 -0.6 49
2019-09-24 00:00:00 15 6 Oeste 10 Oeste 0 907.7 0.1 47
2019-09-23 23:00:00 15.3 4 Noroeste 9 Oeste 0 908 0.8 47
2019-09-23 22:00:00 15.9 3 Oeste 9 Sudoeste 0 908 0.9 45
2019-09-23 21:00:00 16.9 7 Sudoeste 13 Sudoeste 0 907.6 0.7 45
2019-09-23 20:00:00 18 6 Sudoeste 14 Sudoeste 0 907.2 0.2 42
2019-09-23 19:00:00 19.2 6 Sur 16 Sur 0 907.1 0 41
2019-09-23 18:00:00 20.2 6 Sudoeste 17 Sur 0 906.9 -0.4 40
2019-09-23 17:00:00 19.8 8 Sur 24 Sur 0 907 -0.6 41
2019-09-23 16:00:00 19.7 8 Sur 19 Sur 0 907.1 -0.8 42
2019-09-23 15:00:00 18.5 10 Sur 21 Sur 0 907.3 -0.6 45
2019-09-23 14:00:00 18.3 8 Sur 19 Sudeste 0 907.6 -0.3 47
2019-09-23 13:00:00 17.2 7 Sur 14 Sur 0 907.9 0.6 48
2019-09-23 12:00:00 15.8 6 Sur 17 Sudeste 0 907.9 0.7 51
2019-09-23 11:00:00 15.5 3 Sudeste 8 Sudeste 0 907.9 1.1 53
2019-09-23 10:00:00 13.5 0 Calma 7 Noroeste 0 907.3 1.2 57
2019-09-23 09:00:00 11.5 0 Calma 9 Este 0 907.2 1.3 61
2019-09-23 08:00:00 10.3 0 Calma 5 Norte 0 906.8 1.2 62
2019-09-23 07:00:00 10.2 3 Norte 5 Norte 0 906.1 0.6 60
2019-09-23 06:00:00 10.9 3 Norte 8 Nordeste 0 905.9 0.5 59
2019-09-23 05:00:00 11.4 4 Nordeste 8 Este 0 905.6 0.3 59
2019-09-23 04:00:00 11.6 5 Nordeste 10 Nordeste 0 905.5 0.1 58
2019-09-23 03:00:00 11.7 6 Este 9 Este 0 905.4 0.3 58
2019-09-23 02:00:00 11.6 4 Nordeste 10 Nordeste 0 905.3 0.2 56
2019-09-23 01:00:00 11.8 0 Calma 10 Oeste 0 905.4 0.9 55
2019-09-23 00:00:00 12.3 2 Noroeste 9 Oeste 0 905.1 1.5 51
2019-09-22 23:00:00 12.9 5 Oeste 13 Oeste 0 905.1 1.9 51
2019-09-22 22:00:00 13 5 Noroeste 16 Oeste 0 904.5 1.4 49
2019-09-22 21:00:00 14.3 8 Oeste 21 Oeste 0 903.6 1 44
2019-09-22 20:00:00 15.8 9 Oeste 22 Oeste 0 903.2 1.3 39
2019-09-22 19:00:00 17.9 11 Oeste 31 Oeste 0 903.1 1.2 36
2019-09-22 18:00:00 18.4 16 Oeste 37 Oeste 0 902.6 0.8 36
2019-09-22 17:00:00 19.7 13 Oeste 36 Oeste 0 901.9 0 33
2019-09-22 16:00:00 19.5 13 Oeste 28 Oeste 0 901.9 0.2 33
2019-09-22 15:00:00 19.1 13 Sudoeste 26 Oeste 0 901.8 0.3 30
2019-09-22 14:00:00 18 12 Oeste 27 Sudoeste 0 901.9 0.3 42
2019-09-22 13:00:00 17.9 12 Sudoeste 25 Sudoeste 0 901.7 0.5 45
2019-09-22 12:00:00 16.8 11 Sudoeste 24 Sudoeste 0 901.5 0.6 55
2019-09-22 11:00:00 15.1 6 Sudoeste 14 Sudoeste 0 901.6 1.3 71
2019-09-22 10:00:00 12.6 4 Oeste 14 Oeste 0.1 901.2 1.3 99
2019-09-22 09:00:00 12.3 6 Oeste 17 Sudoeste 0.2 900.9 1.2 99
2019-09-22 08:00:00 13.1 13 Sudoeste 23 Sudoeste 0 900.3 0.3 99
2019-09-22 07:00:00 13.3 10 Sudoeste 19 Sudoeste 0.2 899.9 -0.4 99
2019-09-22 06:00:00 13.3 10 Sudoeste 21 Sudoeste 0 899.7 -0.8 99
2019-09-22 05:00:00 13.4 14 Sudoeste 26 Sudoeste 0.3 900 -0.6 99
2019-09-22 04:00:00 13.6 7 Sudoeste 20 Sur 0.6 900.3 -0.4 99
2019-09-22 03:00:00 13.7 9 Sudoeste 16 Sudoeste 0 900.5 -0.5 99
2019-09-22 02:00:00 13.5 10 Sudoeste 18 Sudoeste 0.1 900.6 -0.5 99
2019-09-22 01:00:00 14.1 8 Sudoeste 13 Sudoeste 0 900.7 -0.3 97
2019-09-22 00:00:00 14 5 Sudoeste 12 Oeste 0 901 0.3 97
2019-09-21 23:00:00 14.1 6 Oeste 14 Sudoeste 0 901.1 0.5 97
2019-09-21 22:00:00 14 4 Oeste 14 Oeste 0 901 0.3 99
2019-09-21 21:00:00 14.5 4 Oeste 13 Oeste 0 900.7 0.1 99
2019-09-21 20:00:00 14.3 9 Sudoeste 19 Sudoeste 0.1 900.6 -0.1 99
2019-09-21 19:00:00 14.8 5 Sudoeste 12 Sudoeste 1 900.7 -0.5 98
2019-09-21 18:00:00 15.8 7 Sudoeste 11 Sudoeste 0 900.6 -0.8 83
2019-09-21 17:00:00 16.2 6 Sudoeste 13 Sudoeste 0 900.7 -1.1 77
2019-09-21 16:00:00 16.1 8 Sudoeste 14 Sudoeste 0.2 901.2 -0.8 79
2019-09-21 15:00:00 16.2 10 Sudoeste 17 Sudoeste 0 901.4 -0.6 77
2019-09-21 14:00:00 15.9 9 Sudoeste 17 Sudoeste 0 901.8 -0.1 79
2019-09-21 13:00:00 15.6 6 Sur 16 Sur 0 902 0.4 79
2019-09-21 12:00:00 15.4 8 Sudoeste 17 Sudoeste 0 902 0.5 79
2019-09-21 11:00:00 15.4 6 Sur 11 Sur 0 901.9 0.5 98
2019-09-21 10:00:00 14.4 5 Sudeste 9 Sudeste 0 901.6 0.2 99
2019-09-21 09:00:00 13.2 0 Calma 5 Este 0 901.5 0.2 99
2019-09-21 08:00:00 13 3 Este 8 Sudeste 0 901.4 0 99
2019-09-21 07:00:00 13.3 5 Sudeste 9 Sur 0 901.4 -0.1 99
2019-09-21 06:00:00 13.7 5 Sudeste 8 Sudeste 0 901.3 -0.8 99
2019-09-21 05:00:00 13.7 2 Sudeste 9 Sudeste 0 901.4 -0.6 99
2019-09-21 04:00:00 14 7 Este 11 Este 0 901.5 -0.8 99
2019-09-21 03:00:00 13.7 0 Calma 11 Sudeste 2.4 902.1 -0.1 99
2019-09-21 02:00:00 13.5 0 Calma 41 Sudeste 11.2 902 -0.5 99
2019-09-21 01:00:00 14.2 12 Este 21 Este 0.5 902.3 0.3 93
2019-09-21 00:00:00 14.2 3 Oeste 17 Noroeste 0.7 902.2 0.2 88
2019-09-20 23:00:00 13.6 8 Noroeste 23 Sur 1.2 902.5 1.3 97
2019-09-20 22:00:00 13.1 20 Sur 58 Sur 1 902 0.5 98
2019-09-20 21:00:00 18.6 4 Sudoeste 26 Sur 0.2 902 0 71
2019-09-20 20:00:00 19.4 19 Sudeste 31 Sudeste 0.6 901.2 -1.2 67
2019-09-20 19:00:00 20.6 13 Sudeste 28 Sudeste 0 901.5 -1.6 59
2019-09-20 18:00:00 21 16 Sudeste 31 Sudeste 0 902 -1.6 59
2019-09-20 17:00:00 21.4 11 Sudeste 23 Sudeste 0 902.4 -1.7 59
2019-09-20 16:00:00 20.1 12 Sudeste 22 Sudeste 0 903.1 -1.4 65
2019-09-20 15:00:00 20.3 8 Sudeste 19 Este 0 903.6 -1.6 66
2019-09-20 14:00:00 19.1 9 Este 20 Este 0 904.1 -1 68
2019-09-20 13:00:00 18.5 8 Este 26 Este 0 904.5 -0.7 70
2019-09-20 12:00:00 18 10 Sudeste 50 Sudeste 0 905.2 0.6 70
2019-09-20 11:00:00 17.7 12 Este 19 Este 0 905.1 0.9 71
2019-09-20 10:00:00 17.2 12 Sudeste 19 Sudeste 0 905.2 1.1 75
2019-09-20 09:00:00 16.2 6 Este 11 Este 0 904.6 0.7 77
2019-09-20 08:00:00 16 8 Este 13 Nordeste 0 904.2 0.1 76
2019-09-20 07:00:00 16.4 8 Nordeste 13 Este 0 904.1 -0.4 73
2019-09-20 06:00:00 16.6 5 Nordeste 10 Nordeste 0 903.9 -0.7 71
2019-09-20 05:00:00 16.6 4 Nordeste 9 Nordeste 0 904.1 -0.8 70
2019-09-20 04:00:00 17.1 7 Nordeste 12 Nordeste 0 904.5 -0.3 66
2019-09-20 03:00:00 18 5 Este 14 Este 0 904.6 -0.2 63
2019-09-20 02:00:00 18 8 Nordeste 16 Este 0 904.9 0 60
2019-09-20 01:00:00 18.3 8 Este 15 Este 0 904.8 0.6 55
2019-09-20 00:00:00 19.4 13 Este 17 Nordeste 0 904.8 0.9 50